sensor_id;sensor_type;location;lat;lon;timestamp;P1;durP1;ratioP1;P2;durP2;ratioP2
6251;SDS011;3159;52.414;9.784;2023-07-29T00:01:09;2.90;;;2.70;;
6251;SDS011;3159;52.414;9.784;2023-07-29T00:03:36;2.80;;;2.60;;
6251;SDS011;3159;52.414;9.784;2023-07-29T00:06:04;5.17;;;2.30;;
6251;SDS011;3159;52.414;9.784;2023-07-29T00:08:31;2.80;;;2.60;;
6251;SDS011;3159;52.414;9.784;2023-07-29T00:10:58;2.47;;;2.27;;
6251;SDS011;3159;52.414;9.784;2023-07-29T00:13:25;2.37;;;2.17;;
6251;SDS011;3159;52.414;9.784;2023-07-29T00:15:53;2.23;;;2.00;;
6251;SDS011;3159;52.414;9.784;2023-07-29T00:18:21;2.60;;;2.40;;
6251;SDS011;3159;52.414;9.784;2023-07-29T00:20:48;2.80;;;2.60;;
6251;SDS011;3159;52.414;9.784;2023-07-29T00:23:17;2.60;;;2.40;;
6251;SDS011;3159;52.414;9.784;2023-07-29T00:25:45;3.50;;;2.50;;
6251;SDS011;3159;52.414;9.784;2023-07-29T00:28:12;2.80;;;2.60;;
6251;SDS011;3159;52.414;9.784;2023-07-29T00:30:39;3.23;;;2.30;;
6251;SDS011;3159;52.414;9.784;2023-07-29T00:33:06;4.00;;;2.10;;
6251;SDS011;3159;52.414;9.784;2023-07-29T00:35:33;2.30;;;1.93;;
6251;SDS011;3159;52.414;9.784;2023-07-29T00:38:00;2.17;;;1.97;;
6251;SDS011;3159;52.414;9.784;2023-07-29T00:40:28;2.83;;;2.17;;
6251;SDS011;3159;52.414;9.784;2023-07-29T00:42:56;2.33;;;2.13;;
6251;SDS011;3159;52.414;9.784;2023-07-29T00:45:23;2.60;;;1.90;;
6251;SDS011;3159;52.414;9.784;2023-07-29T00:47:51;1.97;;;1.87;;
6251;SDS011;3159;52.414;9.784;2023-07-29T00:50:17;1.90;;;1.80;;
6251;SDS011;3159;52.414;9.784;2023-07-29T00:52:44;1.93;;;1.80;;
6251;SDS011;3159;52.414;9.784;2023-07-29T00:55:12;3.90;;;1.67;;
6251;SDS011;3159;52.414;9.784;2023-07-29T00:57:40;1.80;;;1.70;;
6251;SDS011;3159;52.414;9.784;2023-07-29T01:00:13;1.57;;;1.47;;
6251;SDS011;3159;52.414;9.784;2023-07-29T01:02:40;2.20;;;1.63;;
6251;SDS011;3159;52.414;9.784;2023-07-29T01:05:08;1.73;;;1.60;;
6251;SDS011;3159;52.414;9.784;2023-07-29T01:07:39;2.10;;;1.90;;
6251;SDS011;3159;52.414;9.784;2023-07-29T01:10:13;5.30;;;2.00;;
6251;SDS011;3159;52.414;9.784;2023-07-29T01:12:48;1.83;;;1.60;;
6251;SDS011;3159;52.414;9.784;2023-07-29T01:15:21;1.60;;;1.50;;
6251;SDS011;3159;52.414;9.784;2023-07-29T01:17:52;1.77;;;1.67;;
6251;SDS011;3159;52.414;9.784;2023-07-29T01:20:22;1.60;;;1.50;;
6251;SDS011;3159;52.414;9.784;2023-07-29T01:22:51;1.43;;;1.33;;
6251;SDS011;3159;52.414;9.784;2023-07-29T01:25:19;2.10;;;1.50;;
6251;SDS011;3159;52.414;9.784;2023-07-29T01:27:48;3.23;;;1.80;;
6251;SDS011;3159;52.414;9.784;2023-07-29T01:30:16;1.70;;;1.60;;
6251;SDS011;3159;52.414;9.784;2023-07-29T01:32:46;1.60;;;1.50;;
6251;SDS011;3159;52.414;9.784;2023-07-29T01:35:19;1.37;;;1.27;;
6251;SDS011;3159;52.414;9.784;2023-07-29T01:37:51;2.87;;;1.43;;
6251;SDS011;3159;52.414;9.784;2023-07-29T01:40:22;3.80;;;1.40;;
6251;SDS011;3159;52.414;9.784;2023-07-29T01:42:52;1.60;;;1.50;;
6251;SDS011;3159;52.414;9.784;2023-07-29T01:45:22;1.63;;;1.33;;
6251;SDS011;3159;52.414;9.784;2023-07-29T01:47:49;2.27;;;1.60;;
6251;SDS011;3159;52.414;9.784;2023-07-29T01:50:16;2.50;;;1.40;;
6251;SDS011;3159;52.414;9.784;2023-07-29T01:52:43;1.47;;;1.37;;
6251;SDS011;3159;52.414;9.784;2023-07-29T01:55:10;1.70;;;1.57;;
6251;SDS011;3159;52.414;9.784;2023-07-29T01:57:38;1.90;;;1.33;;
6251;SDS011;3159;52.414;9.784;2023-07-29T02:00:06;1.43;;;1.30;;
6251;SDS011;3159;52.414;9.784;2023-07-29T02:02:34;2.30;;;1.50;;
6251;SDS011;3159;52.414;9.784;2023-07-29T02:05:00;1.27;;;1.17;;
6251;SDS011;3159;52.414;9.784;2023-07-29T02:07:27;1.70;;;1.60;;
6251;SDS011;3159;52.414;9.784;2023-07-29T02:09:54;1.70;;;1.60;;
6251;SDS011;3159;52.414;9.784;2023-07-29T02:12:21;1.70;;;1.60;;
6251;SDS011;3159;52.414;9.784;2023-07-29T02:14:49;1.60;;;1.50;;
6251;SDS011;3159;52.414;9.784;2023-07-29T02:17:16;1.50;;;1.40;;
6251;SDS011;3159;52.414;9.784;2023-07-29T02:19:43;1.60;;;1.50;;
6251;SDS011;3159;52.414;9.784;2023-07-29T02:22:12;1.90;;;1.80;;
6251;SDS011;3159;52.414;9.784;2023-07-29T02:24:40;2.27;;;1.40;;
6251;SDS011;3159;52.414;9.784;2023-07-29T02:27:06;2.27;;;1.50;;
6251;SDS011;3159;52.414;9.784;2023-07-29T02:29:33;1.83;;;1.73;;
6251;SDS011;3159;52.414;9.784;2023-07-29T02:32:02;2.53;;;1.57;;
6251;SDS011;3159;52.414;9.784;2023-07-29T02:34:29;1.70;;;1.60;;
6251;SDS011;3159;52.414;9.784;2023-07-29T02:36:56;1.50;;;1.40;;
6251;SDS011;3159;52.414;9.784;2023-07-29T02:39:23;1.50;;;1.40;;
6251;SDS011;3159;52.414;9.784;2023-07-29T02:41:50;1.77;;;1.67;;
6251;SDS011;3159;52.414;9.784;2023-07-29T02:44:16;1.57;;;1.47;;
6251;SDS011;3159;52.414;9.784;2023-07-29T02:46:44;2.43;;;1.40;;
6251;SDS011;3159;52.414;9.784;2023-07-29T02:49:12;1.80;;;1.70;;
6251;SDS011;3159;52.414;9.784;2023-07-29T02:51:39;1.43;;;1.33;;
6251;SDS011;3159;52.414;9.784;2023-07-29T02:54:06;2.20;;;1.40;;
6251;SDS011;3159;52.414;9.784;2023-07-29T02:56:33;1.87;;;1.60;;
6251;SDS011;3159;52.414;9.784;2023-07-29T02:59:00;2.17;;;1.70;;
6251;SDS011;3159;52.414;9.784;2023-07-29T03:01:27;1.87;;;1.70;;
6251;SDS011;3159;52.414;9.784;2023-07-29T03:03:54;1.40;;;1.33;;
6251;SDS011;3159;52.414;9.784;2023-07-29T03:06:22;4.60;;;1.50;;
6251;SDS011;3159;52.414;9.784;2023-07-29T03:12:16;1.80;;;1.63;;
6251;SDS011;3159;52.414;9.784;2023-07-29T03:14:44;1.53;;;1.43;;
6251;SDS011;3159;52.414;9.784;2023-07-29T03:17:14;1.90;;;1.60;;
6251;SDS011;3159;52.414;9.784;2023-07-29T03:19:40;4.83;;;1.40;;
6251;SDS011;3159;52.414;9.784;2023-07-29T03:22:08;1.50;;;1.40;;
6251;SDS011;3159;52.414;9.784;2023-07-29T03:24:35;1.67;;;1.57;;
6251;SDS011;3159;52.414;9.784;2023-07-29T03:27:02;1.60;;;1.40;;
6251;SDS011;3159;52.414;9.784;2023-07-29T03:29:30;1.40;;;1.27;;
6251;SDS011;3159;52.414;9.784;2023-07-29T03:31:57;4.40;;;1.40;;
6251;SDS011;3159;52.414;9.784;2023-07-29T03:34:24;1.40;;;1.30;;
6251;SDS011;3159;52.414;9.784;2023-07-29T03:36:51;1.57;;;1.47;;
6251;SDS011;3159;52.414;9.784;2023-07-29T03:39:19;2.10;;;1.63;;
6251;SDS011;3159;52.414;9.784;2023-07-29T03:41:46;1.57;;;1.47;;
6251;SDS011;3159;52.414;9.784;2023-07-29T03:44:13;2.27;;;1.63;;
6251;SDS011;3159;52.414;9.784;2023-07-29T03:46:39;1.70;;;1.60;;
6251;SDS011;3159;52.414;9.784;2023-07-29T03:49:06;2.67;;;1.63;;
6251;SDS011;3159;52.414;9.784;2023-07-29T03:51:33;2.23;;;1.60;;
6251;SDS011;3159;52.414;9.784;2023-07-29T03:54:00;2.43;;;1.60;;
6251;SDS011;3159;52.414;9.784;2023-07-29T03:56:28;2.43;;;1.57;;
6251;SDS011;3159;52.414;9.784;2023-07-29T03:59:01;1.50;;;1.40;;
6251;SDS011;3159;52.414;9.784;2023-07-29T04:01:29;1.50;;;1.40;;
6251;SDS011;3159;52.414;9.784;2023-07-29T04:03:56;1.50;;;1.40;;
6251;SDS011;3159;52.414;9.784;2023-07-29T04:06:22;3.03;;;1.47;;
6251;SDS011;3159;52.414;9.784;2023-07-29T04:08:49;1.70;;;1.60;;
6251;SDS011;3159;52.414;9.784;2023-07-29T04:11:16;2.13;;;1.50;;
6251;SDS011;3159;52.414;9.784;2023-07-29T04:13:44;1.57;;;1.40;;
6251;SDS011;3159;52.414;9.784;2023-07-29T04:16:11;1.20;;;1.10;;
6251;SDS011;3159;52.414;9.784;2023-07-29T04:18:38;1.30;;;1.20;;
6251;SDS011;3159;52.414;9.784;2023-07-29T04:21:08;2.40;;;1.60;;
6251;SDS011;3159;52.414;9.784;2023-07-29T04:23:34;3.33;;;1.73;;
6251;SDS011;3159;52.414;9.784;2023-07-29T04:26:01;1.87;;;1.50;;
6251;SDS011;3159;52.414;9.784;2023-07-29T04:28:28;1.97;;;1.40;;
6251;SDS011;3159;52.414;9.784;2023-07-29T04:30:56;1.53;;;1.40;;
6251;SDS011;3159;52.414;9.784;2023-07-29T04:33:23;3.53;;;1.60;;
6251;SDS011;3159;52.414;9.784;2023-07-29T04:35:50;1.37;;;1.27;;
6251;SDS011;3159;52.414;9.784;2023-07-29T04:38:17;3.50;;;1.83;;
6251;SDS011;3159;52.414;9.784;2023-07-29T04:40:44;1.63;;;1.53;;
6251;SDS011;3159;52.414;9.784;2023-07-29T04:43:10;1.50;;;1.40;;
6251;SDS011;3159;52.414;9.784;2023-07-29T04:45:41;1.87;;;1.70;;
6251;SDS011;3159;52.414;9.784;2023-07-29T04:48:10;1.63;;;1.53;;
6251;SDS011;3159;52.414;9.784;2023-07-29T04:50:37;2.43;;;1.70;;
6251;SDS011;3159;52.414;9.784;2023-07-29T04:53:04;1.73;;;1.50;;
6251;SDS011;3159;52.414;9.784;2023-07-29T04:55:31;1.70;;;1.60;;
6251;SDS011;3159;52.414;9.784;2023-07-29T04:57:58;2.50;;;1.30;;
6251;SDS011;3159;52.414;9.784;2023-07-29T05:00:25;1.50;;;1.40;;
6251;SDS011;3159;52.414;9.784;2023-07-29T05:02:52;3.10;;;1.97;;
6251;SDS011;3159;52.414;9.784;2023-07-29T05:05:20;2.60;;;1.63;;
6251;SDS011;3159;52.414;9.784;2023-07-29T05:07:47;2.30;;;1.70;;
6251;SDS011;3159;52.414;9.784;2023-07-29T05:10:14;2.30;;;1.67;;
6251;SDS011;3159;52.414;9.784;2023-07-29T05:12:41;1.50;;;1.40;;
6251;SDS011;3159;52.414;9.784;2023-07-29T05:15:08;3.10;;;1.77;;
6251;SDS011;3159;52.414;9.784;2023-07-29T05:17:36;2.37;;;1.60;;
6251;SDS011;3159;52.414;9.784;2023-07-29T05:20:03;2.20;;;1.40;;
6251;SDS011;3159;52.414;9.784;2023-07-29T05:22:32;2.27;;;1.70;;
6251;SDS011;3159;52.414;9.784;2023-07-29T05:24:59;1.80;;;1.60;;
6251;SDS011;3159;52.414;9.784;2023-07-29T05:27:26;3.90;;;1.90;;
6251;SDS011;3159;52.414;9.784;2023-07-29T05:29:53;2.73;;;1.83;;
6251;SDS011;3159;52.414;9.784;2023-07-29T05:32:19;4.27;;;1.73;;
6251;SDS011;3159;52.414;9.784;2023-07-29T05:34:46;1.80;;;1.70;;
6251;SDS011;3159;52.414;9.784;2023-07-29T05:37:13;2.83;;;1.77;;
6251;SDS011;3159;52.414;9.784;2023-07-29T05:39:41;2.00;;;1.80;;
6251;SDS011;3159;52.414;9.784;2023-07-29T05:42:08;1.97;;;1.60;;
6251;SDS011;3159;52.414;9.784;2023-07-29T05:44:35;1.90;;;1.70;;
6251;SDS011;3159;52.414;9.784;2023-07-29T05:47:02;2.87;;;1.80;;
6251;SDS011;3159;52.414;9.784;2023-07-29T05:49:29;1.30;;;1.20;;
6251;SDS011;3159;52.414;9.784;2023-07-29T05:51:56;2.30;;;1.87;;
6251;SDS011;3159;52.414;9.784;2023-07-29T05:54:26;1.60;;;1.50;;
6251;SDS011;3159;52.414;9.784;2023-07-29T05:56:54;1.70;;;1.60;;
6251;SDS011;3159;52.414;9.784;2023-07-29T05:59:21;2.07;;;1.30;;
6251;SDS011;3159;52.414;9.784;2023-07-29T06:01:48;2.03;;;1.90;;
6251;SDS011;3159;52.414;9.784;2023-07-29T06:04:14;2.53;;;1.70;;
6251;SDS011;3159;52.414;9.784;2023-07-29T06:06:41;2.20;;;2.00;;
6251;SDS011;3159;52.414;9.784;2023-07-29T06:09:08;2.40;;;1.97;;
6251;SDS011;3159;52.414;9.784;2023-07-29T06:11:35;3.53;;;1.90;;
6251;SDS011;3159;52.414;9.784;2023-07-29T06:14:03;1.73;;;1.60;;
6251;SDS011;3159;52.414;9.784;2023-07-29T06:16:30;2.77;;;1.50;;
6251;SDS011;3159;52.414;9.784;2023-07-29T06:18:57;2.47;;;1.50;;
6251;SDS011;3159;52.414;9.784;2023-07-29T06:21:24;2.00;;;1.70;;
6251;SDS011;3159;52.414;9.784;2023-07-29T06:23:51;1.70;;;1.60;;
6251;SDS011;3159;52.414;9.784;2023-07-29T06:26:18;4.57;;;1.77;;
6251;SDS011;3159;52.414;9.784;2023-07-29T06:28:44;3.13;;;1.70;;
6251;SDS011;3159;52.414;9.784;2023-07-29T06:31:13;3.60;;;1.37;;
6251;SDS011;3159;52.414;9.784;2023-07-29T06:33:40;2.00;;;1.60;;
6251;SDS011;3159;52.414;9.784;2023-07-29T06:36:07;2.40;;;2.07;;
6251;SDS011;3159;52.414;9.784;2023-07-29T06:38:33;2.03;;;1.83;;
6251;SDS011;3159;52.414;9.784;2023-07-29T06:41:00;2.00;;;1.80;;
6251;SDS011;3159;52.414;9.784;2023-07-29T06:43:30;1.90;;;1.80;;
6251;SDS011;3159;52.414;9.784;2023-07-29T06:45:57;2.13;;;1.80;;
6251;SDS011;3159;52.414;9.784;2023-07-29T06:48:25;1.67;;;1.57;;
6251;SDS011;3159;52.414;9.784;2023-07-29T06:50:52;2.83;;;1.90;;
6251;SDS011;3159;52.414;9.784;2023-07-29T06:53:20;1.53;;;1.43;;
6251;SDS011;3159;52.414;9.784;2023-07-29T06:55:47;1.60;;;1.50;;
6251;SDS011;3159;52.414;9.784;2023-07-29T06:58:14;2.13;;;1.63;;
6251;SDS011;3159;52.414;9.784;2023-07-29T07:00:41;3.43;;;1.40;;
6251;SDS011;3159;52.414;9.784;2023-07-29T07:03:07;1.93;;;1.63;;
6251;SDS011;3159;52.414;9.784;2023-07-29T07:05:36;2.43;;;1.83;;
6251;SDS011;3159;52.414;9.784;2023-07-29T07:08:03;1.60;;;1.50;;
6251;SDS011;3159;52.414;9.784;2023-07-29T07:10:30;2.13;;;1.67;;
6251;SDS011;3159;52.414;9.784;2023-07-29T07:12:58;2.33;;;1.77;;
6251;SDS011;3159;52.414;9.784;2023-07-29T07:15:25;2.60;;;1.93;;
6251;SDS011;3159;52.414;9.784;2023-07-29T07:17:52;1.97;;;1.63;;
6251;SDS011;3159;52.414;9.784;2023-07-29T07:20:19;2.47;;;1.70;;
6251;SDS011;3159;52.414;9.784;2023-07-29T07:22:47;2.60;;;1.67;;
6251;SDS011;3159;52.414;9.784;2023-07-29T07:25:14;2.27;;;1.90;;
6251;SDS011;3159;52.414;9.784;2023-07-29T07:27:41;2.73;;;1.70;;
6251;SDS011;3159;52.414;9.784;2023-07-29T07:30:08;2.67;;;1.90;;
6251;SDS011;3159;52.414;9.784;2023-07-29T07:32:35;2.80;;;1.90;;
6251;SDS011;3159;52.414;9.784;2023-07-29T07:35:03;3.90;;;2.20;;
6251;SDS011;3159;52.414;9.784;2023-07-29T07:37:30;3.37;;;2.00;;
6251;SDS011;3159;52.414;9.784;2023-07-29T07:39:58;2.13;;;1.93;;
6251;SDS011;3159;52.414;9.784;2023-07-29T07:42:25;2.00;;;1.80;;
6251;SDS011;3159;52.414;9.784;2023-07-29T07:44:52;2.10;;;1.90;;
6251;SDS011;3159;52.414;9.784;2023-07-29T07:47:19;2.90;;;2.07;;
6251;SDS011;3159;52.414;9.784;2023-07-29T07:49:46;3.70;;;2.27;;
6251;SDS011;3159;52.414;9.784;2023-07-29T07:52:14;3.10;;;2.00;;
6251;SDS011;3159;52.414;9.784;2023-07-29T07:54:41;2.37;;;1.57;;
6251;SDS011;3159;52.414;9.784;2023-07-29T07:57:09;2.03;;;1.83;;
6251;SDS011;3159;52.414;9.784;2023-07-29T07:59:36;3.30;;;1.90;;
6251;SDS011;3159;52.414;9.784;2023-07-29T08:02:03;1.80;;;1.60;;
6251;SDS011;3159;52.414;9.784;2023-07-29T08:04:31;2.87;;;1.80;;
6251;SDS011;3159;52.414;9.784;2023-07-29T08:06:58;2.10;;;1.87;;
6251;SDS011;3159;52.414;9.784;2023-07-29T08:09:24;1.77;;;1.50;;
6251;SDS011;3159;52.414;9.784;2023-07-29T08:11:51;2.00;;;1.80;;
6251;SDS011;3159;52.414;9.784;2023-07-29T08:14:19;1.77;;;1.63;;
6251;SDS011;3159;52.414;9.784;2023-07-29T08:16:46;2.33;;;1.73;;
6251;SDS011;3159;52.414;9.784;2023-07-29T08:19:13;1.93;;;1.80;;
6251;SDS011;3159;52.414;9.784;2023-07-29T08:21:40;3.50;;;1.80;;
6251;SDS011;3159;52.414;9.784;2023-07-29T08:24:07;2.10;;;1.90;;
6251;SDS011;3159;52.414;9.784;2023-07-29T08:26:34;3.77;;;1.90;;
6251;SDS011;3159;52.414;9.784;2023-07-29T08:29:01;2.10;;;1.90;;
6251;SDS011;3159;52.414;9.784;2023-07-29T08:31:30;2.20;;;1.90;;
6251;SDS011;3159;52.414;9.784;2023-07-29T08:33:58;3.07;;;2.10;;
6251;SDS011;3159;52.414;9.784;2023-07-29T08:36:25;1.90;;;1.80;;
6251;SDS011;3159;52.414;9.784;2023-07-29T08:38:52;2.60;;;2.40;;
6251;SDS011;3159;52.414;9.784;2023-07-29T08:41:19;3.60;;;2.70;;
6251;SDS011;3159;52.414;9.784;2023-07-29T08:43:52;3.20;;;2.70;;
6251;SDS011;3159;52.414;9.784;2023-07-29T08:46:25;4.23;;;2.90;;
6251;SDS011;3159;52.414;9.784;2023-07-29T08:48:54;4.07;;;2.90;;
6251;SDS011;3159;52.414;9.784;2023-07-29T08:51:22;3.80;;;3.23;;
6251;SDS011;3159;52.414;9.784;2023-07-29T08:53:50;4.23;;;3.87;;
6251;SDS011;3159;52.414;9.784;2023-07-29T08:56:17;5.33;;;3.50;;
6251;SDS011;3159;52.414;9.784;2023-07-29T08:58:44;4.33;;;3.40;;
6251;SDS011;3159;52.414;9.784;2023-07-29T09:01:12;3.70;;;3.30;;
6251;SDS011;3159;52.414;9.784;2023-07-29T09:03:40;3.80;;;3.50;;
6251;SDS011;3159;52.414;9.784;2023-07-29T09:06:09;4.10;;;3.80;;
6251;SDS011;3159;52.414;9.784;2023-07-29T09:08:36;3.80;;;3.50;;
6251;SDS011;3159;52.414;9.784;2023-07-29T09:11:03;4.07;;;3.73;;
6251;SDS011;3159;52.414;9.784;2023-07-29T09:13:30;3.53;;;3.33;;
6251;SDS011;3159;52.414;9.784;2023-07-29T09:15:57;4.10;;;3.80;;
6251;SDS011;3159;52.414;9.784;2023-07-29T09:18:25;3.67;;;3.37;;
6251;SDS011;3159;52.414;9.784;2023-07-29T09:20:53;3.60;;;3.27;;
6251;SDS011;3159;52.414;9.784;2023-07-29T09:23:21;3.53;;;3.23;;
6251;SDS011;3159;52.414;9.784;2023-07-29T09:25:48;3.73;;;3.43;;
6251;SDS011;3159;52.414;9.784;2023-07-29T09:28:15;3.83;;;3.40;;
6251;SDS011;3159;52.414;9.784;2023-07-29T09:30:45;3.53;;;3.33;;
6251;SDS011;3159;52.414;9.784;2023-07-29T09:33:13;3.83;;;3.43;;
6251;SDS011;3159;52.414;9.784;2023-07-29T09:35:40;4.63;;;3.60;;
6251;SDS011;3159;52.414;9.784;2023-07-29T09:38:08;3.80;;;3.50;;
6251;SDS011;3159;52.414;9.784;2023-07-29T09:40:41;4.33;;;3.93;;
6251;SDS011;3159;52.414;9.784;2023-07-29T09:43:10;4.97;;;4.37;;
6251;SDS011;3159;52.414;9.784;2023-07-29T09:45:37;5.13;;;4.50;;
6251;SDS011;3159;52.414;9.784;2023-07-29T09:48:04;5.50;;;5.00;;
6251;SDS011;3159;52.414;9.784;2023-07-29T09:50:34;6.13;;;5.50;;
6251;SDS011;3159;52.414;9.784;2023-07-29T09:53:02;7.10;;;6.50;;
6251;SDS011;3159;52.414;9.784;2023-07-29T09:55:32;6.60;;;6.00;;
6251;SDS011;3159;52.414;9.784;2023-07-29T09:58:01;7.20;;;6.47;;
6251;SDS011;3159;52.414;9.784;2023-07-29T10:00:32;7.20;;;6.47;;
6251;SDS011;3159;52.414;9.784;2023-07-29T10:02:59;7.47;;;6.83;;
6251;SDS011;3159;52.414;9.784;2023-07-29T10:05:27;7.60;;;6.83;;
6251;SDS011;3159;52.414;9.784;2023-07-29T10:07:54;7.07;;;6.47;;
6251;SDS011;3159;52.414;9.784;2023-07-29T10:10:22;7.73;;;7.03;;
6251;SDS011;3159;52.414;9.784;2023-07-29T10:12:49;7.93;;;7.17;;
6251;SDS011;3159;52.414;9.784;2023-07-29T10:15:18;7.87;;;7.03;;
6251;SDS011;3159;52.414;9.784;2023-07-29T10:17:45;7.43;;;6.73;;
6251;SDS011;3159;52.414;9.784;2023-07-29T10:20:12;7.63;;;6.93;;
6251;SDS011;3159;52.414;9.784;2023-07-29T10:22:40;7.20;;;6.57;;
6251;SDS011;3159;52.414;9.784;2023-07-29T10:25:08;8.07;;;7.27;;
6251;SDS011;3159;52.414;9.784;2023-07-29T10:27:42;6.90;;;6.20;;
6251;SDS011;3159;52.414;9.784;2023-07-29T10:30:12;5.87;;;5.37;;
6251;SDS011;3159;52.414;9.784;2023-07-29T10:32:43;5.20;;;4.70;;
6251;SDS011;3159;52.414;9.784;2023-07-29T10:35:10;5.03;;;4.47;;
6251;SDS011;3159;52.414;9.784;2023-07-29T10:37:38;5.30;;;4.17;;
6251;SDS011;3159;52.414;9.784;2023-07-29T10:40:06;4.20;;;3.80;;
6251;SDS011;3159;52.414;9.784;2023-07-29T10:42:34;3.80;;;3.50;;
6251;SDS011;3159;52.414;9.784;2023-07-29T10:45:17;3.67;;;3.20;;
6251;SDS011;3159;52.414;9.784;2023-07-29T10:47:46;3.33;;;3.03;;
6251;SDS011;3159;52.414;9.784;2023-07-29T10:50:17;2.87;;;2.67;;
6251;SDS011;3159;52.414;9.784;2023-07-29T10:52:48;3.00;;;2.77;;
6251;SDS011;3159;52.414;9.784;2023-07-29T10:55:23;3.40;;;3.10;;
6251;SDS011;3159;52.414;9.784;2023-07-29T10:57:52;3.50;;;3.00;;
6251;SDS011;3159;52.414;9.784;2023-07-29T11:00:32;3.30;;;3.03;;
6251;SDS011;3159;52.414;9.784;2023-07-29T11:03:00;3.43;;;2.93;;
6251;SDS011;3159;52.414;9.784;2023-07-29T11:05:41;4.40;;;2.77;;
6251;SDS011;3159;52.414;9.784;2023-07-29T11:08:21;2.83;;;2.53;;
6251;SDS011;3159;52.414;9.784;2023-07-29T11:11:01;3.10;;;2.80;;
6251;SDS011;3159;52.414;9.784;2023-07-29T11:13:32;3.47;;;2.90;;
6251;SDS011;3159;52.414;9.784;2023-07-29T11:16:00;3.00;;;2.80;;
6251;SDS011;3159;52.414;9.784;2023-07-29T11:18:29;2.50;;;2.30;;
6251;SDS011;3159;52.414;9.784;2023-07-29T11:20:58;2.50;;;2.30;;
6251;SDS011;3159;52.414;9.784;2023-07-29T11:23:29;2.90;;;2.37;;
6251;SDS011;3159;52.414;9.784;2023-07-29T11:25:57;3.63;;;1.90;;
6251;SDS011;3159;52.414;9.784;2023-07-29T11:28:25;2.13;;;1.93;;
6251;SDS011;3159;52.414;9.784;2023-07-29T11:30:52;3.10;;;1.90;;
6251;SDS011;3159;52.414;9.784;2023-07-29T11:33:20;1.60;;;1.50;;
6251;SDS011;3159;52.414;9.784;2023-07-29T11:35:50;2.77;;;1.80;;
6251;SDS011;3159;52.414;9.784;2023-07-29T11:38:17;1.60;;;1.50;;
6251;SDS011;3159;52.414;9.784;2023-07-29T11:40:53;1.67;;;1.57;;
6251;SDS011;3159;52.414;9.784;2023-07-29T11:43:21;1.53;;;1.40;;
6251;SDS011;3159;52.414;9.784;2023-07-29T11:45:48;3.53;;;1.20;;
6251;SDS011;3159;52.414;9.784;2023-07-29T11:48:14;2.23;;;0.90;;
6251;SDS011;3159;52.414;9.784;2023-07-29T11:50:41;1.73;;;0.90;;
6251;SDS011;3159;52.414;9.784;2023-07-29T11:53:10;0.90;;;0.80;;
6251;SDS011;3159;52.414;9.784;2023-07-29T11:55:37;6.40;;;1.00;;
6251;SDS011;3159;52.414;9.784;2023-07-29T11:58:04;1.27;;;0.80;;
6251;SDS011;3159;52.414;9.784;2023-07-29T12:00:31;1.00;;;1.00;;
6251;SDS011;3159;52.414;9.784;2023-07-29T12:02:58;0.80;;;0.80;;
6251;SDS011;3159;52.414;9.784;2023-07-29T12:05:25;2.20;;;1.03;;
6251;SDS011;3159;52.414;9.784;2023-07-29T12:07:53;2.00;;;0.77;;
6251;SDS011;3159;52.414;9.784;2023-07-29T12:10:21;2.33;;;0.70;;
6251;SDS011;3159;52.414;9.784;2023-07-29T12:12:48;1.33;;;1.00;;
6251;SDS011;3159;52.414;9.784;2023-07-29T12:15:22;0.60;;;0.60;;
6251;SDS011;3159;52.414;9.784;2023-07-29T12:17:52;1.20;;;0.80;;
6251;SDS011;3159;52.414;9.784;2023-07-29T12:20:21;0.90;;;0.70;;
6251;SDS011;3159;52.414;9.784;2023-07-29T12:22:51;1.20;;;0.70;;
6251;SDS011;3159;52.414;9.784;2023-07-29T12:25:19;1.33;;;0.90;;
6251;SDS011;3159;52.414;9.784;2023-07-29T12:27:47;0.73;;;0.73;;
6251;SDS011;3159;52.414;9.784;2023-07-29T12:30:15;1.80;;;0.77;;
6251;SDS011;3159;52.414;9.784;2023-07-29T12:32:45;0.63;;;0.63;;
6251;SDS011;3159;52.414;9.784;2023-07-29T12:35:12;4.50;;;0.70;;
6251;SDS011;3159;52.414;9.784;2023-07-29T12:37:39;0.63;;;0.60;;
6251;SDS011;3159;52.414;9.784;2023-07-29T12:40:08;1.13;;;0.77;;
6251;SDS011;3159;52.414;9.784;2023-07-29T12:42:48;1.40;;;1.27;;
6251;SDS011;3159;52.414;9.784;2023-07-29T12:45:15;2.60;;;0.90;;
6251;SDS011;3159;52.414;9.784;2023-07-29T12:47:42;1.43;;;0.67;;
6251;SDS011;3159;52.414;9.784;2023-07-29T12:50:09;3.10;;;1.00;;
6251;SDS011;3159;52.414;9.784;2023-07-29T12:52:36;1.10;;;0.80;;
6251;SDS011;3159;52.414;9.784;2023-07-29T12:55:03;2.10;;;1.43;;
6251;SDS011;3159;52.414;9.784;2023-07-29T12:57:33;2.97;;;0.77;;
6251;SDS011;3159;52.414;9.784;2023-07-29T13:00:02;0.80;;;0.70;;
6251;SDS011;3159;52.414;9.784;2023-07-29T13:02:29;0.60;;;0.60;;
6251;SDS011;3159;52.414;9.784;2023-07-29T13:04:56;1.37;;;0.90;;
6251;SDS011;3159;52.414;9.784;2023-07-29T13:07:23;1.30;;;0.80;;
6251;SDS011;3159;52.414;9.784;2023-07-29T13:09:50;1.13;;;0.80;;
6251;SDS011;3159;52.414;9.784;2023-07-29T13:12:16;1.67;;;0.60;;
6251;SDS011;3159;52.414;9.784;2023-07-29T13:14:43;1.87;;;0.90;;
6251;SDS011;3159;52.414;9.784;2023-07-29T13:17:12;0.93;;;0.57;;
6251;SDS011;3159;52.414;9.784;2023-07-29T13:19:38;2.90;;;0.67;;
6251;SDS011;3159;52.414;9.784;2023-07-29T13:22:05;1.27;;;0.80;;
6251;SDS011;3159;52.414;9.784;2023-07-29T13:24:32;1.37;;;0.60;;
6251;SDS011;3159;52.414;9.784;2023-07-29T13:26:59;0.70;;;0.70;;
6251;SDS011;3159;52.414;9.784;2023-07-29T13:29:26;0.83;;;0.83;;
6251;SDS011;3159;52.414;9.784;2023-07-29T13:31:53;0.70;;;0.70;;
6251;SDS011;3159;52.414;9.784;2023-07-29T13:34:21;0.67;;;0.67;;
6251;SDS011;3159;52.414;9.784;2023-07-29T13:36:48;0.80;;;0.80;;
6251;SDS011;3159;52.414;9.784;2023-07-29T13:39:15;0.70;;;0.70;;
6251;SDS011;3159;52.414;9.784;2023-07-29T13:41:42;0.83;;;0.50;;
6251;SDS011;3159;52.414;9.784;2023-07-29T13:44:09;0.67;;;0.67;;
6251;SDS011;3159;52.414;9.784;2023-07-29T13:46:35;0.80;;;0.70;;
6251;SDS011;3159;52.414;9.784;2023-07-29T13:49:02;0.80;;;0.80;;
6251;SDS011;3159;52.414;9.784;2023-07-29T13:51:31;0.83;;;0.80;;
6251;SDS011;3159;52.414;9.784;2023-07-29T13:53:57;0.83;;;0.70;;
6251;SDS011;3159;52.414;9.784;2023-07-29T13:56:24;1.27;;;0.77;;
6251;SDS011;3159;52.414;9.784;2023-07-29T13:58:51;1.33;;;0.77;;
6251;SDS011;3159;52.414;9.784;2023-07-29T14:01:18;0.70;;;0.70;;
6251;SDS011;3159;52.414;9.784;2023-07-29T14:03:45;1.47;;;0.70;;
6251;SDS011;3159;52.414;9.784;2023-07-29T14:06:11;3.17;;;1.10;;
6251;SDS011;3159;52.414;9.784;2023-07-29T14:08:40;0.90;;;0.87;;
6251;SDS011;3159;52.414;9.784;2023-07-29T14:11:07;2.00;;;0.70;;
6251;SDS011;3159;52.414;9.784;2023-07-29T14:13:35;1.63;;;0.90;;
6251;SDS011;3159;52.414;9.784;2023-07-29T14:16:03;0.80;;;0.73;;
6251;SDS011;3159;52.414;9.784;2023-07-29T14:18:30;2.30;;;0.90;;
6251;SDS011;3159;52.414;9.784;2023-07-29T14:20:57;0.77;;;0.70;;
6251;SDS011;3159;52.414;9.784;2023-07-29T14:23:24;1.10;;;0.90;;
6251;SDS011;3159;52.414;9.784;2023-07-29T14:25:54;0.77;;;0.70;;
6251;SDS011;3159;52.414;9.784;2023-07-29T14:28:25;0.83;;;0.80;;
6251;SDS011;3159;52.414;9.784;2023-07-29T14:30:52;1.07;;;1.00;;
6251;SDS011;3159;52.414;9.784;2023-07-29T14:33:22;0.97;;;0.90;;
6251;SDS011;3159;52.414;9.784;2023-07-29T14:35:49;2.83;;;0.70;;
6251;SDS011;3159;52.414;9.784;2023-07-29T14:38:16;1.43;;;0.80;;
6251;SDS011;3159;52.414;9.784;2023-07-29T14:40:47;1.30;;;1.00;;
6251;SDS011;3159;52.414;9.784;2023-07-29T14:45:59;1.20;;;1.10;;
6251;SDS011;3159;52.414;9.784;2023-07-29T14:48:26;1.57;;;0.90;;
6251;SDS011;3159;52.414;9.784;2023-07-29T14:50:57;1.67;;;0.80;;
6251;SDS011;3159;52.414;9.784;2023-07-29T14:53:24;1.37;;;0.80;;
6251;SDS011;3159;52.414;9.784;2023-07-29T14:55:55;1.03;;;0.90;;
6251;SDS011;3159;52.414;9.784;2023-07-29T14:58:25;1.00;;;0.90;;
6251;SDS011;3159;52.414;9.784;2023-07-29T15:00:58;0.70;;;0.70;;
6251;SDS011;3159;52.414;9.784;2023-07-29T15:03:27;0.73;;;0.70;;
6251;SDS011;3159;52.414;9.784;2023-07-29T15:06:00;1.10;;;1.00;;
6251;SDS011;3159;52.414;9.784;2023-07-29T15:08:28;1.00;;;0.90;;
6251;SDS011;3159;52.414;9.784;2023-07-29T15:10:55;0.90;;;0.90;;
6251;SDS011;3159;52.414;9.784;2023-07-29T15:13:23;1.20;;;1.10;;
6251;SDS011;3159;52.414;9.784;2023-07-29T15:15:51;1.00;;;0.90;;
6251;SDS011;3159;52.414;9.784;2023-07-29T15:18:29;1.63;;;0.90;;
6251;SDS011;3159;52.414;9.784;2023-07-29T15:20:58;1.83;;;0.93;;
6251;SDS011;3159;52.414;9.784;2023-07-29T15:23:29;0.90;;;0.90;;
6251;SDS011;3159;52.414;9.784;2023-07-29T15:25:58;1.67;;;0.80;;